Time;durP1;ratioP1;P1;durP2;ratioP2;P2;SDS_P1;SDS_P2;PMS_P1;PMS_P2;Temp;Humidity;BMP_temperature;BMP_pressure;BME280_temperature;BME280_humidity;BME280_pressure;Samples;Min_cycle;Max_cycle;Signal;HPM_P1;HPM_P2
2023/05/15 00:01:58;;;;;;;;;25.00;10.67;;;;;;;;5057016;28;45269;-78
2023/05/15 00:04:23;;;;;;;;;13.00;11.00;;;;;;;;5056384;28;45356;-78
2023/05/15 00:06:48;;;;;;;;;12.50;8.25;;;;;;;;5056960;28;45417;-78
2023/05/15 00:09:14;;;;;;;;;18.00;9.67;;;;;;;;5056985;28;45199;-78
2023/05/15 00:11:39;;;;;;;;;12.00;9.67;;;;;;;;5056846;28;45528;-78
2023/05/15 00:14:04;;;;;;;;;19.33;13.00;;;;;;;;5056665;28;45604;-78
2023/05/15 00:16:29;;;;;;;;;15.50;11.25;;;;;;;;5056874;28;45426;-78
2023/05/15 00:18:54;;;;;;;;;10.33;8.00;;;;;;;;5056608;28;45229;-78
2023/05/15 00:21:20;;;;;;;;;17.33;10.00;;;;;;;;5056868;28;45210;-78
2023/05/15 00:23:46;;;;;;;;;17.00;10.00;;;;;;;;5056580;28;46480;-77
2023/05/15 00:26:14;;;;;;;;;16.75;12.25;;;;;;;;5056787;28;45731;-77
2023/05/15 00:28:39;;;;;;;;;21.25;11.00;;;;;;;;5056870;28;45463;-77
2023/05/15 00:31:05;;;;;;;;;17.00;12.67;;;;;;;;5056839;28;45340;-77
2023/05/15 00:33:30;;;;;;;;;13.00;10.25;;;;;;;;5056023;28;47051;-77
2023/05/15 00:35:55;;;;;;;;;19.33;12.33;;;;;;;;5056489;28;45490;-78
2023/05/15 00:38:20;;;;;;;;;16.67;11.00;;;;;;;;5056660;28;45507;-78
2023/05/15 00:40:46;;;;;;;;;16.67;13.00;;;;;;;;5038585;28;45339;-77
2023/05/15 00:43:11;;;;;;;;;15.50;13.00;;;;;;;;5056391;28;45419;-78
2023/05/15 00:45:38;;;;;;;;;14.75;9.75;;;;;;;;5056287;28;45534;-78
2023/05/15 00:48:04;;;;;;;;;19.00;15.00;;;;;;;;5038076;28;45414;-78
2023/05/15 00:50:31;;;;;;;;;18.25;11.00;;;;;;;;5056567;28;45592;-78
2023/05/15 00:52:57;;;;;;;;;18.25;14.00;;;;;;;;5055876;28;45648;-78
2023/05/15 00:55:23;;;;;;;;;21.25;12.00;;;;;;;;5056217;28;45429;-78
2023/05/15 00:57:50;;;;;;;;;12.75;11.00;;;;;;;;5056369;28;45545;-78
2023/05/15 01:00:17;;;;;;;;;12.75;11.50;;;;;;;;5056319;28;45519;-78
2023/05/15 01:02:42;;;;;;;;;18.00;11.00;;;;;;;;5055870;28;46508;-78
2023/05/15 01:05:08;;;;;;;;;22.25;15.75;;;;;;;;5055977;28;45401;-78
2023/05/15 01:07:37;;;;;;;;;16.50;11.00;;;;;;;;5055784;28;45345;-78
2023/05/15 01:10:04;;;;;;;;;14.50;10.50;;;;;;;;5056072;28;45520;-78
2023/05/15 01:12:30;;;;;;;;;17.50;14.50;;;;;;;;5055491;28;46195;-78
2023/05/15 01:14:56;;;;;;;;;21.50;12.50;;;;;;;;5055913;28;45903;-78
2023/05/15 01:17:21;;;;;;;;;24.25;11.00;;;;;;;;5055605;28;45412;-78
2023/05/15 01:19:49;;;;;;;;;16.00;14.75;;;;;;;;5056009;28;45369;-78
2023/05/15 01:22:29;;;;;;;;;14.00;10.25;;;;;;;;5055762;28;46818;-78
2023/05/15 01:25:03;;;;;;;;;21.25;14.50;;;;;;;;5055843;28;45864;-78
2023/05/15 01:27:49;;;;;;;;;17.25;13.00;;;;;;;;5056018;28;45598;-78
2023/05/15 01:30:20;;;;;;;;;22.75;16.00;;;;;;;;5054953;28;45348;-78
2023/05/15 01:32:49;;;;;;;;;21.25;19.00;;;;;;;;5055589;28;47496;-78
2023/05/15 01:35:24;;;;;;;;;27.75;15.50;;;;;;;;5055665;28;45334;-78
2023/05/15 01:37:53;;;;;;;;;23.75;15.75;;;;;;;;5055932;28;45416;-77
2023/05/15 01:40:21;;;;;;;;;18.25;15.00;;;;;;;;5055917;28;45314;-78
2023/05/15 01:43:06;;;;;;;;;20.50;12.25;;;;;;;;5055507;28;46345;-78
2023/05/15 01:45:32;;;;;;;;;27.00;15.75;;;;;;;;5054992;28;45478;-78
2023/05/15 01:47:59;;;;;;;;;19.25;14.25;;;;;;;;5055646;28;45417;-78
2023/05/15 01:50:25;;;;;;;;;22.75;18.50;;;;;;;;5055621;28;45512;-77
2023/05/15 01:52:52;;;;;;;;;17.00;11.50;;;;;;;;5055345;28;45620;-78
2023/05/15 01:55:19;;;;;;;;;21.25;18.25;;;;;;;;5055387;28;45859;-78
2023/05/15 01:57:46;;;;;;;;;22.75;16.50;;;;;;;;5055623;28;45364;-77
2023/05/15 02:00:12;;;;;;;;;20.25;16.00;;;;;;;;5055153;28;45353;-77
2023/05/15 02:02:37;;;;;;;;;19.25;16.75;;;;;;;;5055225;28;46626;-78
2023/05/15 02:05:03;;;;;;;;;23.25;18.50;;;;;;;;5056123;28;45469;-79
2023/05/15 02:07:28;;;;;;;;;21.25;18.00;;;;;;;;5058979;28;45290;-77
2023/05/15 02:09:54;;;;;;;;;24.50;15.00;;;;;;;;5058704;28;45470;-77
2023/05/15 02:12:20;;;;;;;;;24.75;19.00;;;;;;;;5040358;28;46572;-77
2023/05/15 02:14:47;;;;;;;;;19.25;14.50;;;;;;;;5058442;28;45360;-77
2023/05/15 02:17:12;;;;;;;;;19.50;18.25;;;;;;;;5058892;28;45377;-78
2023/05/15 02:19:38;;;;;;;;;22.75;15.25;;;;;;;;5040788;28;45436;-78
2023/05/15 02:22:03;;;;;;;;;23.33;14.67;;;;;;;;5058614;28;45505;-77
2023/05/15 02:24:28;;;;;;;;;21.00;15.25;;;;;;;;5058550;28;45254;-78
2023/05/15 02:26:56;;;;;;;;;21.00;16.33;;;;;;;;5058673;28;45345;-78
2023/05/15 02:29:30;;;;;;;;;16.00;12.75;;;;;;;;5058320;28;45358;-78
2023/05/15 02:31:55;;;;;;;;;21.00;14.75;;;;;;;;5058282;28;46439;-77
2023/05/15 02:34:39;;;;;;;;;18.67;13.00;;;;;;;;5058671;28;45261;-77
2023/05/15 02:37:08;;;;;;;;;20.75;15.75;;;;;;;;5058514;28;45367;-77
2023/05/15 02:39:33;;;;;;;;;17.75;14.00;;;;;;;;5058652;28;45269;-77
2023/05/15 02:41:59;;;;;;;;;25.75;14.50;;;;;;;;5058347;28;45494;-78
2023/05/15 02:44:25;;;;;;;;;22.25;10.50;;;;;;;;5057752;28;45406;-77
2023/05/15 02:46:51;;;;;;;;;24.50;16.25;;;;;;;;5058464;28;45473;-77
2023/05/15 02:49:16;;;;;;;;;22.00;14.25;;;;;;;;5058392;28;45387;-77
2023/05/15 02:51:42;;;;;;;;;25.00;15.75;;;;;;;;5058011;28;46534;-78
2023/05/15 02:54:08;;;;;;;;;16.67;13.33;;;;;;;;5058339;28;45289;-78
2023/05/15 02:56:33;;;;;;;;;20.50;13.75;;;;;;;;5058070;28;45320;-77
2023/05/15 02:58:58;;;;;;;;;18.00;14.67;;;;;;;;5058071;28;45273;-78
2023/05/15 03:01:24;;;;;;;;;20.67;14.33;;;;;;;;5058128;28;45547;-77
2023/05/15 03:03:49;;;;;;;;;19.67;15.00;;;;;;;;5057941;28;45253;-76
2023/05/15 03:06:14;;;;;;;;;17.00;13.67;;;;;;;;5058240;28;45397;-77
2023/05/15 03:08:39;;;;;;;;;20.00;13.33;;;;;;;;5058157;28;45360;-77
2023/05/15 03:11:04;;;;;;;;;19.33;16.00;;;;;;;;5057781;28;45311;-78
2023/05/15 03:13:30;;;;;;;;;16.50;12.00;;;;;;;;5057366;28;45251;-77
2023/05/15 03:15:55;;;;;;;;;22.33;14.67;;;;;;;;5057967;28;45293;-77
2023/05/15 03:18:20;;;;;;;;;28.33;15.33;;;;;;;;5058091;28;45253;-79
2023/05/15 03:20:49;;;;;;;;;18.00;12.67;;;;;;;;5057757;28;46636;-80
2023/05/15 03:23:15;;;;;;;;;19.50;14.25;;;;;;;;5039444;28;45924;-79
2023/05/15 03:25:40;;;;;;;;;16.33;12.00;;;;;;;;5057910;28;45412;-78
2023/05/15 03:28:05;;;;;;;;;16.33;14.00;;;;;;;;5057352;28;45556;-78
2023/05/15 03:30:30;;;;;;;;;21.00;14.00;;;;;;;;5057567;28;46073;-77
2023/05/15 03:32:56;;;;;;;;;18.33;14.00;;;;;;;;5057663;28;45418;-79
2023/05/15 03:35:22;;;;;;;;;19.75;13.50;;;;;;;;5057622;28;45402;-77
2023/05/15 03:37:47;;;;;;;;;16.50;7.50;;;;;;;;5057605;28;45305;-77
2023/05/15 03:40:12;;;;;;;;;15.00;13.00;;;;;;;;5057375;28;46543;-77
2023/05/15 03:42:37;;;;;;;;;18.50;13.75;;;;;;;;5057014;28;45345;-77
2023/05/15 03:45:03;;;;;;;;;23.33;14.67;;;;;;;;5057436;28;45475;-77
2023/05/15 03:47:28;;;;;;;;;25.75;16.75;;;;;;;;5057416;28;45333;-77
2023/05/15 03:49:53;;;;;;;;;23.33;17.00;;;;;;;;5057313;28;47292;-77
2023/05/15 03:52:18;;;;;;;;;17.00;11.67;;;;;;;;5057402;28;45332;-77
2023/05/15 03:54:44;;;;;;;;;19.00;17.00;;;;;;;;5057419;28;45239;-77
2023/05/15 03:57:09;;;;;;;;;20.00;16.00;;;;;;;;5038887;28;45178;-76
2023/05/15 03:59:34;;;;;;;;;24.33;13.33;;;;;;;;5057159;28;45290;-76
2023/05/15 04:01:59;;;;;;;;;17.67;14.33;;;;;;;;5057056;28;45480;-77
2023/05/15 04:04:24;;;;;;;;;24.00;17.00;;;;;;;;5057127;28;45315;-77
2023/05/15 04:06:50;;;;;;;;;18.00;13.00;;;;;;;;5057227;28;45457;-77
2023/05/15 04:09:15;;;;;;;;;11.50;7.00;;;;;;;;5056816;28;46505;-77
2023/05/15 04:11:40;;;;;;;;;13.50;11.00;;;;;;;;5056363;28;45309;-78
2023/05/15 04:14:06;;;;;;;;;14.00;12.00;;;;;;;;5057145;28;45365;-77
2023/05/15 04:16:31;;;;;;;;;23.67;14.33;;;;;;;;5057075;28;45334;-77
2023/05/15 04:18:56;;;;;;;;;14.67;12.00;;;;;;;;5056877;28;46365;-77
2023/05/15 04:21:21;;;;;;;;;20.00;15.00;;;;;;;;5056751;28;45398;-77
2023/05/15 04:23:46;;;;;;;;;24.67;16.00;;;;;;;;5056908;28;45452;-77
2023/05/15 04:26:11;;;;;;;;;18.00;15.67;;;;;;;;5056818;28;45454;-77
2023/05/15 04:28:37;;;;;;;;;19.67;12.00;;;;;;;;5055845;28;45406;-77
2023/05/15 04:31:02;;;;;;;;;14.67;11.33;;;;;;;;5056623;28;45341;-77
2023/05/15 04:33:27;;;;;;;;;17.33;11.33;;;;;;;;5056573;28;45479;-76
2023/05/15 04:35:52;;;;;;;;;17.67;13.00;;;;;;;;5056721;28;45362;-77
2023/05/15 04:38:18;;;;;;;;;16.33;10.33;;;;;;;;5056419;28;45396;-77
2023/05/15 04:40:43;;;;;;;;;14.50;9.00;;;;;;;;5056095;28;45451;-78
2023/05/15 04:43:09;;;;;;;;;21.50;16.25;;;;;;;;5056585;28;45448;-76
2023/05/15 04:45:34;;;;;;;;;19.33;13.00;;;;;;;;5056438;28;45512;-77
2023/05/15 04:47:59;;;;;;;;;17.67;11.67;;;;;;;;5056338;28;46013;-76
2023/05/15 04:50:25;;;;;;;;;27.00;13.50;;;;;;;;5056257;28;45564;-77
2023/05/15 04:52:50;;;;;;;;;17.75;13.50;;;;;;;;5056351;28;45545;-77
2023/05/15 04:55:15;;;;;;;;;16.67;13.00;;;;;;;;5056142;28;45345;-77
2023/05/15 04:57:40;;;;;;;;;17.00;14.75;;;;;;;;5056237;28;45834;-77
2023/05/15 05:00:10;;;;;;;;;14.33;12.33;;;;;;;;5056186;28;45346;-77
2023/05/15 05:02:36;;;;;;;;;18.00;12.50;;;;;;;;5056345;28;45274;-77
2023/05/15 05:05:01;;;;;;;;;14.75;12.75;;;;;;;;5056234;28;45443;-77
2023/05/15 05:07:26;;;;;;;;;19.75;12.00;;;;;;;;5037708;28;47286;-77
2023/05/15 05:09:52;;;;;;;;;22.33;14.00;;;;;;;;5056110;28;45357;-77
2023/05/15 05:12:17;;;;;;;;;13.67;13.33;;;;;;;;5055885;28;45400;-77
2023/05/15 05:14:43;;;;;;;;;23.33;12.33;;;;;;;;5056231;28;45342;-77
2023/05/15 05:17:08;;;;;;;;;25.75;15.50;;;;;;;;5055775;28;47261;-77
2023/05/15 05:19:33;;;;;;;;;17.67;13.00;;;;;;;;5056158;28;45380;-76
2023/05/15 05:22:03;;;;;;;;;18.67;13.33;;;;;;;;5055887;28;45671;-76
2023/05/15 05:24:28;;;;;;;;;24.75;17.00;;;;;;;;5055716;28;45490;-77
2023/05/15 05:26:54;;;;;;;;;13.00;9.67;;;;;;;;5055968;28;46556;-77
2023/05/15 05:29:19;;;;;;;;;23.25;12.75;;;;;;;;5055790;28;45238;-76
2023/05/15 05:31:45;;;;;;;;;16.25;12.75;;;;;;;;5055772;28;45414;-77
2023/05/15 05:34:10;;;;;;;;;19.00;13.00;;;;;;;;5055847;28;45432;-77
2023/05/15 05:36:35;;;;;;;;;18.00;11.33;;;;;;;;5055343;28;45459;-76
2023/05/15 05:39:01;;;;;;;;;16.50;10.25;;;;;;;;5055547;28;45371;-77
2023/05/15 05:41:26;;;;;;;;;16.33;12.00;;;;;;;;5058869;28;45349;-77
2023/05/15 05:43:51;;;;;;;;;23.67;16.33;;;;;;;;5059204;28;45431;-77
2023/05/15 05:46:16;;;;;;;;;19.67;12.33;;;;;;;;5058960;28;46359;-77
2023/05/15 05:48:42;;;;;;;;;16.50;12.00;;;;;;;;5059218;28;45382;-77
2023/05/15 05:51:07;;;;;;;;;20.33;13.00;;;;;;;;5058911;28;45359;-77
2023/05/15 05:53:32;;;;;;;;;14.67;13.33;;;;;;;;5059290;28;45210;-76
2023/05/15 05:55:57;;;;;;;;;21.00;13.67;;;;;;;;5059179;28;45392;-77
2023/05/15 05:58:22;;;;;;;;;17.00;13.00;;;;;;;;5058908;28;45382;-77
2023/05/15 06:00:48;;;;;;;;;23.00;16.33;;;;;;;;5059059;28;45349;-76
2023/05/15 06:03:13;;;;;;;;;21.75;15.00;;;;;;;;5058926;28;45345;-77
2023/05/15 06:05:38;;;;;;;;;14.33;14.00;;;;;;;;5058520;28;46118;-77
2023/05/15 06:08:04;;;;;;;;;21.67;13.67;;;;;;;;5058876;28;45483;-77
2023/05/15 06:10:29;;;;;;;;;20.50;15.00;;;;;;;;5058984;28;45751;-77
2023/05/15 06:12:55;;;;;;;;;22.75;11.75;;;;;;;;5058580;28;45370;-77
2023/05/15 06:15:20;;;;;;;;;21.00;14.00;;;;;;;;5058769;28;45391;-77
2023/05/15 06:17:45;;;;;;;;;22.00;18.75;;;;;;;;5058592;28;45444;-77
2023/05/15 06:20:11;;;;;;;;;20.67;14.00;;;;;;;;5058564;28;45373;-77
2023/05/15 06:22:36;;;;;;;;;20.25;14.25;;;;;;;;5040666;28;45407;-77
2023/05/15 06:25:02;;;;;;;;;19.25;14.75;;;;;;;;5058565;28;46677;-77
2023/05/15 06:27:28;;;;;;;;;20.00;13.00;;;;;;;;5058506;28;45449;-77
2023/05/15 06:29:53;;;;;;;;;17.33;14.00;;;;;;;;5058735;28;45301;-76
2023/05/15 06:32:18;;;;;;;;;21.50;13.25;;;;;;;;5040422;28;45499;-77
2023/05/15 06:34:43;;;;;;;;;19.67;16.00;;;;;;;;5058073;28;45443;-77
2023/05/15 06:37:10;;;;;;;;;14.67;13.67;;;;;;;;5058457;28;45507;-77
2023/05/15 06:39:35;;;;;;;;;15.00;8.50;;;;;;;;5058555;28;45426;-77
2023/05/15 06:42:00;;;;;;;;;15.00;13.00;;;;;;;;5058548;28;45258;-77
2023/05/15 06:44:26;;;;;;;;;24.67;15.67;;;;;;;;5057944;28;46127;-76
2023/05/15 06:46:52;;;;;;;;;20.25;15.75;;;;;;;;5058299;28;45436;-76
2023/05/15 06:49:17;;;;;;;;;22.00;11.50;;;;;;;;5057782;28;45335;-76
2023/05/15 06:51:42;;;;;;;;;16.67;13.00;;;;;;;;5039805;28;45321;-77
2023/05/15 06:54:07;;;;;;;;;18.00;10.00;;;;;;;;5058331;28;45462;-76
2023/05/15 06:56:33;;;;;;;;;14.00;10.00;;;;;;;;5058119;28;45496;-77
2023/05/15 06:58:58;;;;;;;;;17.33;13.00;;;;;;;;5058588;28;45396;-77
2023/05/15 07:01:23;;;;;;;;;18.00;11.33;;;;;;;;5057985;28;45407;-77
2023/05/15 07:03:48;;;;;;;;;21.33;14.67;;;;;;;;5057594;28;45317;-76
2023/05/15 07:06:13;;;;;;;;;20.33;12.67;;;;;;;;5057970;28;45424;-77
2023/05/15 07:08:38;;;;;;;;;15.00;9.33;;;;;;;;5058048;28;45587;-75
2023/05/15 07:11:04;;;;;;;;;20.67;12.00;;;;;;;;5058023;28;45326;-78
2023/05/15 07:13:29;;;;;;;;;16.25;12.00;;;;;;;;5057567;28;46195;-77
2023/05/15 07:15:54;;;;;;;;;8.00;8.00;;;;;;;;5057191;28;45551;-76
2023/05/15 07:18:19;;;;;;;;;17.67;10.33;;;;;;;;5056994;28;45431;-77
2023/05/15 07:20:45;;;;;;;;;14.67;11.67;;;;;;;;5057857;28;45398;-77
2023/05/15 07:23:10;;;;;;;;;11.67;11.67;;;;;;;;5057672;28;46186;-77
2023/05/15 07:25:35;;;;;;;;;14.33;9.00;;;;;;;;5057514;28;45353;-77
2023/05/15 07:28:00;;;;;;;;;11.75;9.00;;;;;;;;5057716;28;45452;-76
2023/05/15 07:30:25;;;;;;;;;17.33;9.67;;;;;;;;5057867;28;45483;-77
2023/05/15 07:32:51;;;;;;;;;16.67;11.00;;;;;;;;5057307;28;45451;-76
2023/05/15 07:35:17;;;;;;;;;16.00;8.67;;;;;;;;5057516;28;45346;-77
2023/05/15 07:37:42;;;;;;;;;11.75;8.75;;;;;;;;5057551;28;45356;-77
2023/05/15 07:40:07;;;;;;;;;8.67;8.00;;;;;;;;5057806;28;45364;-77
2023/05/15 07:42:32;;;;;;;;;13.00;10.25;;;;;;;;5057214;28;46454;-77
2023/05/15 07:44:58;;;;;;;;;11.00;8.33;;;;;;;;5057380;28;45344;-77
2023/05/15 07:47:23;;;;;;;;;16.00;8.33;;;;;;;;5057118;28;45389;-77
2023/05/15 07:49:48;;;;;;;;;15.67;12.00;;;;;;;;5057243;28;45425;-76
2023/05/15 07:52:13;;;;;;;;;18.00;10.33;;;;;;;;5057189;28;45472;-77
2023/05/15 07:54:40;;;;;;;;;9.00;8.67;;;;;;;;5057273;28;45369;-77
2023/05/15 07:57:05;;;;;;;;;17.00;9.75;;;;;;;;5057422;28;45370;-77
2023/05/15 07:59:31;;;;;;;;;14.50;11.25;;;;;;;;5057666;28;45397;-77
2023/05/15 08:01:56;;;;;;;;;16.67;10.33;;;;;;;;5056810;28;47091;-76
2023/05/15 08:04:21;;;;;;;;;18.67;11.00;;;;;;;;5050936;28;45325;-77
2023/05/15 08:06:46;;;;;;;;;16.67;5.67;;;;;;;;5054304;28;45586;-77
2023/05/15 08:09:11;;;;;;;;;14.00;10.00;;;;;;;;5056768;28;45590;-77
2023/05/15 08:11:37;;;;;;;;;16.00;7.33;;;;;;;;5056730;28;45380;-77
2023/05/15 08:14:02;;;;;;;;;9.33;9.00;;;;;;;;5038199;28;45448;-77
2023/05/15 08:16:28;;;;;;;;;15.67;8.00;;;;;;;;5056297;28;45395;-77
2023/05/15 08:18:57;;;;;;;;;13.75;10.00;;;;;;;;5054257;28;45700;-75
2023/05/15 08:21:22;;;;;;;;;12.00;11.00;;;;;;;;5052335;28;46100;-76
2023/05/15 08:23:47;;;;;;;;;19.33;13.33;;;;;;;;5055427;28;45474;-77
2023/05/15 08:26:12;;;;;;;;;15.33;10.33;;;;;;;;5056274;28;45439;-77
2023/05/15 08:28:38;;;;;;;;;18.67;11.33;;;;;;;;5056284;28;45317;-77
2023/05/15 08:31:03;;;;;;;;;18.25;13.75;;;;;;;;5055824;28;46078;-77
2023/05/15 08:33:28;;;;;;;;;19.33;12.67;;;;;;;;5055925;28;45382;-78
2023/05/15 08:35:53;;;;;;;;;17.67;10.33;;;;;;;;5038141;28;45416;-78
2023/05/15 08:38:18;;;;;;;;;18.67;13.00;;;;;;;;5056334;28;45531;-78
2023/05/15 08:40:45;;;;;;;;;18.67;15.00;;;;;;;;5055747;28;46263;-77
2023/05/15 08:43:15;;;;;;;;;19.00;15.25;;;;;;;;5056071;28;45745;-78
2023/05/15 08:45:40;;;;;;;;;19.50;14.75;;;;;;;;5055111;28;45423;-77
2023/05/15 08:48:13;;;;;;;;;16.00;12.75;;;;;;;;5054196;28;45428;-77
2023/05/15 08:50:39;;;;;;;;;16.50;12.75;;;;;;;;5055796;28;45917;-77
2023/05/15 08:53:04;;;;;;;;;15.25;11.75;;;;;;;;5054986;28;45474;-77
2023/05/15 08:55:31;;;;;;;;;18.25;14.25;;;;;;;;5055974;28;45317;-77
2023/05/15 08:57:57;;;;;;;;;19.50;10.75;;;;;;;;5056026;28;45324;-77
2023/05/15 09:00:22;;;;;;;;;17.50;13.25;;;;;;;;5055633;28;46481;-78
2023/05/15 09:02:48;;;;;;;;;20.00;13.75;;;;;;;;5055661;28;45314;-78
2023/05/15 09:05:13;;;;;;;;;18.00;13.67;;;;;;;;5055915;28;45425;-78
2023/05/15 09:07:40;;;;;;;;;13.00;12.00;;;;;;;;5055479;28;45305;-78
2023/05/15 09:10:05;;;;;;;;;12.50;9.75;;;;;;;;5055726;28;46408;-77
2023/05/15 09:12:32;;;;;;;;;15.25;11.50;;;;;;;;5055051;28;45368;-78
2023/05/15 09:15:07;;;;;;;;;13.25;11.00;;;;;;;;5055091;28;45413;-77
2023/05/15 09:17:32;;;;;;;;;15.00;13.25;;;;;;;;5055630;28;45413;-77
2023/05/15 09:19:57;;;;;;;;;15.33;11.00;;;;;;;;5055585;28;45596;-77
2023/05/15 09:22:24;;;;;;;;;18.33;12.33;;;;;;;;5055205;28;45740;-77
2023/05/15 09:24:51;;;;;;;;;21.50;15.25;;;;;;;;5055329;28;45451;-78
2023/05/15 09:27:17;;;;;;;;;18.25;13.75;;;;;;;;5055635;28;45431;-78
2023/05/15 09:29:42;;;;;;;;;11.50;10.50;;;;;;;;5055030;28;46204;-78
2023/05/15 09:32:09;;;;;;;;;17.50;12.00;;;;;;;;5044714;28;46692;-77
2023/05/15 09:34:35;;;;;;;;;9.50;9.50;;;;;;;;5054455;28;45469;-77
2023/05/15 09:37:02;;;;;;;;;20.00;14.50;;;;;;;;5053433;28;45446;-78
2023/05/15 09:39:27;;;;;;;;;18.00;14.00;;;;;;;;5054309;28;45496;-77
2023/05/15 09:41:53;;;;;;;;;17.50;12.50;;;;;;;;5054379;28;45544;-78
2023/05/15 09:44:25;;;;;;;;;22.00;12.75;;;;;;;;5054068;28;45367;-77
2023/05/15 09:46:50;;;;;;;;;20.25;14.75;;;;;;;;5036028;28;45388;-77
2023/05/15 09:49:16;;;;;;;;;19.50;13.75;;;;;;;;5053539;28;46216;-77
2023/05/15 09:51:45;;;;;;;;;22.75;13.00;;;;;;;;5053888;28;45521;-78
2023/05/15 09:54:15;;;;;;;;;22.00;13.50;;;;;;;;5053943;28;45369;-77
2023/05/15 09:56:43;;;;;;;;;19.75;13.50;;;;;;;;5054115;28;45389;-77
2023/05/15 09:59:11;;;;;;;;;32.25;11.75;;;;;;;;5053510;28;46574;-78
2023/05/15 10:01:36;;;;;;;;;15.00;13.75;;;;;;;;5054147;28;45818;-76
2023/05/15 10:04:03;;;;;;;;;20.00;11.67;;;;;;;;5054358;28;46177;-77
2023/05/15 10:06:36;;;;;;;;;20.00;13.75;;;;;;;;5054041;28;45575;-77
2023/05/15 10:09:02;;;;;;;;;23.25;14.75;;;;;;;;5054103;28;46498;-77
2023/05/15 10:11:28;;;;;;;;;16.50;12.75;;;;;;;;5053636;28;45427;-77
2023/05/15 10:13:54;;;;;;;;;18.50;13.50;;;;;;;;5053582;28;45550;-77
2023/05/15 10:16:21;;;;;;;;;28.50;16.50;;;;;;;;5052325;28;45357;-78
2023/05/15 10:18:47;;;;;;;;;21.50;11.00;;;;;;;;5053387;28;45419;-78
2023/05/15 10:21:12;;;;;;;;;18.25;12.50;;;;;;;;5053665;28;45396;-78
2023/05/15 10:23:40;;;;;;;;;17.50;12.75;;;;;;;;5053562;28;45358;-78
2023/05/15 10:26:25;;;;;;;;;16.50;13.50;;;;;;;;5054561;28;45488;-78
2023/05/15 10:28:51;;;;;;;;;18.50;13.75;;;;;;;;5046165;28;45449;-78
2023/05/15 10:31:17;;;;;;;;;17.75;14.25;;;;;;;;5055518;28;45464;-78
2023/05/15 10:33:42;;;;;;;;;18.00;13.00;;;;;;;;5053556;28;45708;-78
2023/05/15 10:36:08;;;;;;;;;23.25;14.00;;;;;;;;5057500;28;45842;-78
2023/05/15 10:38:34;;;;;;;;;16.25;14.00;;;;;;;;5052559;28;45699;-78
2023/05/15 10:40:59;;;;;;;;;23.00;17.50;;;;;;;;5056542;28;45443;-78
2023/05/15 10:43:25;;;;;;;;;15.33;9.00;;;;;;;;5057120;28;45437;-78
2023/05/15 10:45:51;;;;;;;;;26.25;17.00;;;;;;;;5057008;28;45527;-78
2023/05/15 10:48:17;;;;;;;;;19.50;16.00;;;;;;;;5055916;28;47175;-78
2023/05/15 10:50:42;;;;;;;;;24.75;13.50;;;;;;;;5057019;28;45639;-78
2023/05/15 10:53:08;;;;;;;;;16.00;13.25;;;;;;;;5056263;28;45377;-77
2023/05/15 10:55:35;;;;;;;;;19.75;14.00;;;;;;;;5056662;28;45575;-78
2023/05/15 10:58:00;;;;;;;;;17.75;13.75;;;;;;;;5056843;28;46650;-78
2023/05/15 11:00:26;;;;;;;;;20.67;12.00;;;;;;;;5056563;28;45345;-77
2023/05/15 11:02:54;;;;;;;;;17.50;12.25;;;;;;;;5056711;28;45469;-78
2023/05/15 11:05:19;;;;;;;;;18.50;11.25;;;;;;;;5056634;28;45554;-77
2023/05/15 11:08:03;;;;;;;;;15.50;12.00;;;;;;;;5056584;28;46203;-77
2023/05/15 11:10:28;;;;;;;;;18.00;11.75;;;;;;;;5056388;28;45791;-77
2023/05/15 11:12:54;;;;;;;;;3.00;3.00;;;;;;;;5056656;28;45404;-77
2023/05/15 11:15:19;;;;;;;;;24.50;13.25;;;;;;;;5056754;28;45354;-76
2023/05/15 11:18:00;;;;;;;;;14.75;9.25;;;;;;;;5044747;28;45460;-76
2023/05/15 11:20:31;;;;;;;;;13.75;10.75;;;;;;;;5036640;28;46193;-77
2023/05/15 11:22:58;;;;;;;;;18.50;10.50;;;;;;;;5036400;28;45428;-76
2023/05/15 11:25:32;;;;;;;;;8.50;8.00;;;;;;;;5036026;28;45485;-76
2023/05/15 11:27:58;;;;;;;;;8.50;8.50;;;;;;;;5036060;28;47205;-76
2023/05/15 11:30:36;;;;;;;;;11.00;7.50;;;;;;;;5036352;28;45408;-77
2023/05/15 11:33:02;;;;;;;;;12.50;8.00;;;;;;;;5036280;28;45358;-78
2023/05/15 11:35:37;;;;;;;;;10.00;6.50;;;;;;;;5036367;28;45559;-76
2023/05/15 11:38:09;;;;;;;;;10.75;7.75;;;;;;;;5034646;28;47469;-76
2023/05/15 11:40:46;;;;;;;;;9.75;7.50;;;;;;;;5035884;28;45496;-76
2023/05/15 11:43:17;;;;;;;;;8.75;6.00;;;;;;;;5036100;28;45394;-76
2023/05/15 11:45:44;;;;;;;;;17.00;8.50;;;;;;;;5055231;28;45614;-76
2023/05/15 11:48:11;;;;;;;;;11.25;9.75;;;;;;;;5056167;28;45724;-76
2023/05/15 11:50:37;;;;;;;;;7.50;7.50;;;;;;;;5055762;28;45811;-76
2023/05/15 11:53:06;;;;;;;;;10.50;8.00;;;;;;;;5056220;28;45815;-76
2023/05/15 11:55:32;;;;;;;;;8.50;6.00;;;;;;;;5055749;28;45446;-76
2023/05/15 11:57:57;;;;;;;;;10.50;7.75;;;;;;;;5051222;28;46552;-76
2023/05/15 12:00:22;;;;;;;;;12.50;8.25;;;;;;;;5053485;28;45503;-76
2023/05/15 12:02:48;;;;;;;;;14.50;9.25;;;;;;;;5055981;28;45314;-77
2023/05/15 12:05:13;;;;;;;;;10.67;6.67;;;;;;;;5056055;28;45416;-75
2023/05/15 12:07:40;;;;;;;;;14.00;8.00;;;;;;;;5054052;28;46279;-75
2023/05/15 12:10:06;;;;;;;;;15.50;12.75;;;;;;;;5035988;28;45467;-76
2023/05/15 12:12:31;;;;;;;;;11.50;7.00;;;;;;;;5037613;28;45393;-76
2023/05/15 12:14:57;;;;;;;;;11.00;9.33;;;;;;;;5055653;28;45399;-76
2023/05/15 12:17:23;;;;;;;;;18.50;12.00;;;;;;;;5055686;28;45534;-75
2023/05/15 12:19:48;;;;;;;;;15.25;8.75;;;;;;;;5055803;28;45380;-74
2023/05/15 12:22:14;;;;;;;;;12.75;8.25;;;;;;;;5055842;28;45769;-75
2023/05/15 12:24:41;;;;;;;;;11.75;7.00;;;;;;;;5055016;28;45454;-76
2023/05/15 12:27:07;;;;;;;;;10.00;7.75;;;;;;;;5054875;28;46446;-75
2023/05/15 12:29:32;;;;;;;;;9.25;7.50;;;;;;;;5055586;28;45623;-75
2023/05/15 12:31:57;;;;;;;;;12.33;9.00;;;;;;;;5055000;28;45420;-76
2023/05/15 12:34:23;;;;;;;;;10.00;8.67;;;;;;;;5055799;28;45353;-76
2023/05/15 12:36:48;;;;;;;;;9.50;7.00;;;;;;;;5055756;28;46631;-76
2023/05/15 12:39:14;;;;;;;;;9.33;7.00;;;;;;;;5056004;28;45348;-75
2023/05/15 12:41:39;;;;;;;;;12.00;5.00;;;;;;;;5056292;28;45435;-75
2023/05/15 12:44:04;;;;;;;;;9.00;6.00;;;;;;;;5055845;28;45583;-75
2023/05/15 12:46:30;;;;;;;;;5.75;5.00;;;;;;;;5055972;28;45521;-75
2023/05/15 12:48:59;;;;;;;;;6.75;5.75;;;;;;;;5055686;28;45401;-75
2023/05/15 12:51:24;;;;;;;;;9.25;6.25;;;;;;;;5055872;28;45380;-76
2023/05/15 12:53:53;;;;;;;;;10.00;7.00;;;;;;;;5055869;28;45375;-76
2023/05/15 12:56:18;;;;;;;;;6.75;4.25;;;;;;;;5055985;28;46498;-77
2023/05/15 12:58:43;;;;;;;;;6.33;6.00;;;;;;;;5056028;28;45419;-75
2023/05/15 13:01:08;;;;;;;;;14.00;6.00;;;;;;;;5056052;28;45392;-76
2023/05/15 13:03:33;;;;;;;;;6.67;4.00;;;;;;;;5055746;28;45630;-75
2023/05/15 13:06:00;;;;;;;;;8.33;5.67;;;;;;;;5055170;28;45497;-75
2023/05/15 13:08:25;;;;;;;;;7.00;4.75;;;;;;;;5055563;28;46054;-75
2023/05/15 13:10:55;;;;;;;;;9.67;6.33;;;;;;;;5055964;28;45418;-75
2023/05/15 13:13:20;;;;;;;;;9.00;6.00;;;;;;;;5055357;28;45242;-74
2023/05/15 13:15:47;;;;;;;;;7.25;5.00;;;;;;;;5055606;28;45399;-76
2023/05/15 13:18:14;;;;;;;;;5.50;4.50;;;;;;;;5053524;28;45890;-77
2023/05/15 13:20:40;;;;;;;;;4.50;3.00;;;;;;;;5047320;28;45415;-75
2023/05/15 13:23:06;;;;;;;;;9.00;5.00;;;;;;;;5054504;28;45434;-76
2023/05/15 13:25:31;;;;;;;;;6.75;4.00;;;;;;;;5053548;28;46107;-77
2023/05/15 13:27:57;;;;;;;;;4.00;4.00;;;;;;;;5037338;28;45484;-77
2023/05/15 13:30:22;;;;;;;;;6.00;3.75;;;;;;;;5055733;28;45381;-77
2023/05/15 13:32:48;;;;;;;;;4.25;4.00;;;;;;;;5055047;28;45667;-77
2023/05/15 13:35:13;;;;;;;;;6.33;4.00;;;;;;;;5055023;28;46853;-76
2023/05/15 13:37:38;;;;;;;;;5.67;4.67;;;;;;;;5054930;28;45479;-76
2023/05/15 13:40:08;;;;;;;;;5.67;4.33;;;;;;;;5054901;28;45358;-77
2023/05/15 13:42:33;;;;;;;;;4.00;3.25;;;;;;;;5037213;28;45258;-76
2023/05/15 13:44:59;;;;;;;;;5.67;4.00;;;;;;;;5054992;28;45318;-77
2023/05/15 13:47:25;;;;;;;;;5.00;4.00;;;;;;;;5055236;28;45352;-77
2023/05/15 13:49:51;;;;;;;;;4.50;4.50;;;;;;;;5055186;28;45515;-77
2023/05/15 13:52:16;;;;;;;;;5.00;3.75;;;;;;;;5055253;28;45419;-77
2023/05/15 13:54:41;;;;;;;;;7.33;4.00;;;;;;;;5055171;28;45443;-77
2023/05/15 13:57:06;;;;;;;;;7.00;4.00;;;;;;;;5055198;28;45326;-77
2023/05/15 13:59:31;;;;;;;;;5.33;2.33;;;;;;;;5055245;28;45416;-77
2023/05/15 14:01:57;;;;;;;;;6.00;5.00;;;;;;;;5057456;28;45417;-76
2023/05/15 14:04:22;;;;;;;;;5.67;4.00;;;;;;;;5058248;28;46259;-77
2023/05/15 14:06:47;;;;;;;;;3.33;2.67;;;;;;;;5058523;28;45484;-76
2023/05/15 14:09:12;;;;;;;;;3.00;3.00;;;;;;;;5058732;28;45331;-76
2023/05/15 14:11:37;;;;;;;;;9.00;6.00;;;;;;;;5040234;28;45495;-77
2023/05/15 14:14:03;;;;;;;;;7.00;5.00;;;;;;;;5058153;28;46140;-77
2023/05/15 14:16:28;;;;;;;;;4.67;4.33;;;;;;;;5058136;28;45317;-77
2023/05/15 14:18:53;;;;;;;;;4.67;2.67;;;;;;;;5058455;28;45458;-76